• Join FlightAware (Why Join?)
  • Login
  • US Flag 
08:00AM EDT


 

Airport Tracker/Info


-or-


 

Live Flight TrackerFlight Track Log ✈ ASQ5685 ✈ 02-May-2013 ✈ KATL - KIAD

Flight Track Log - Related Links

Times and Time Zones

All times are in EDT time to prevent confusion due to time zone crossing. See the ASQ5685 flight status page for this flight to view local times or setup timezone preferences in your user account.

Time Position Orientation Groundspeed Altitude Reporting Facility
EDT Latitude Longitude Course Direction KTS MPH feet Rate Location/Type
09:24AM 33.6333 -84.4000 48° Northeast 150 173 2,300  Level Atlanta TRACON
09:25AM 33.6333 -84.3500 90° East 187 215 3,700 2,100 Climbing Atlanta TRACON
09:26AM 33.6333 -84.2667 90° East 246 283 6,300 2,400 Climbing Atlanta TRACON
09:27AM 33.8541 -84.1696 73° East  Level Estimated
09:28AM 33.9264 -84.0832 54° Northeast  Level Estimated
09:28AM 33.6314 -84.1486 91° East 274 315 9,900  Level Atlanta Center
09:29AM 33.9027 -83.9638 103° East  Level FlightAware Approximate
09:29AM 33.6647 -84.0589 66° East 286 329 10,900  Level Atlanta Center
09:30AM 33.9758 -83.8782 48° Northeast  Level Estimated
09:30AM 33.7253 -83.9764 49° Northeast 305 351 13,000  Level Atlanta Center
09:31AM 33.7919 -83.8939 46° Northeast 317 365 15,300 2,160 Climbing Atlanta Center
09:32AM 33.8586 -83.8136 45° Northeast 323 372 17,400 1,380 Climbing Atlanta Center
09:33AM 33.9211 -83.7283 49° Northeast 328 377 18,100 840 Climbing Atlanta Center
09:34AM 33.9836 -83.6281 53° Northeast 343 395 19,100 960 Climbing Atlanta Center
09:35AM 34.0478 -83.5275 52° Northeast 366 421 20,100 960 Climbing Atlanta Center
09:36AM 34.1119 -83.4267 52° Northeast 372 428 21,100 900 Climbing Atlanta Center
09:37AM 34.1803 -83.3181 53° Northeast 390 449 22,000 900 Climbing Atlanta Center
09:38AM 34.2486 -83.2094 53° Northeast 395 455 23,000 960 Climbing Atlanta Center
09:39AM 34.3167 -83.1006 53° Northeast 395 455 24,000 900 Climbing Atlanta Center
09:40AM 34.3825 -82.9917 54° Northeast 395 455 24,900 900 Climbing Atlanta Center
09:41AM 34.4525 -82.8825 52° Northeast 400 460 25,800 840 Climbing Atlanta Center
09:42AM 34.5222 -82.7706 53° Northeast 400 460 26,600 780 Climbing Atlanta Center
09:43AM 34.5900 -82.6586 54° Northeast 405 466 27,400 600 Climbing Atlanta Center
09:44AM 34.6597 -82.5439 54° Northeast 415 478 27,900 480 Climbing Atlanta Center
09:45AM 34.7292 -82.4314 53° Northeast 415 478 28,400 480 Climbing Atlanta Center
09:46AM 34.7986 -82.3136 54° Northeast 415 478 28,900 480 Climbing Atlanta Center
09:47AM 34.8700 -82.1983 53° Northeast 415 478 29,400 540 Climbing Atlanta Center
09:48AM 34.9492 -82.0697 53° Northeast 420 483 30,000 540 Climbing Atlanta Center
09:49AM 35.0203 -81.9489 54° Northeast 430 495 30,500 480 Climbing Atlanta Center
09:50AM 35.0869 -81.8306 55° Northeast 430 495 31,000 480 Climbing Atlanta Center
09:51AM 35.1536 -81.7042 57° Northeast 430 495 31,500 420 Climbing Atlanta Center
09:52AM 35.2100 -81.5958 57° Northeast 430 495 31,900 420 Climbing Atlanta Center
09:53AM 35.2742 -81.4694 58° Northeast 430 495 32,400 480 Climbing Atlanta Center
09:54AM 35.3403 -81.3450 57° Northeast 430 495 32,900 300 Climbing Atlanta Center
09:55AM 35.4042 -81.2206 58° Northeast 425 489 33,000  Climbing Atlanta Center
09:56AM 35.4700 -81.0908 58° Northeast 444 511 33,000  Level Atlanta Center
09:57AM 35.5378 -80.9633 57° Northeast 444 511 33,000  Level Atlanta Center
09:58AM 35.6056 -80.8331 57° Northeast 444 511 33,000  Level Atlanta Center
09:59AM 35.6708 -80.7053 58° Northeast 444 511 33,000  Level Atlanta Center
10:00AM 35.7383 -80.5772 57° Northeast 444 511 33,000  Level Atlanta Center
10:01AM 35.8056 -80.4464 58° Northeast 449 517 33,000  Level Atlanta Center
10:02AM 35.8725 -80.3153 58° Northeast 449 517 33,000  Level Atlanta Center
10:04AM 36.0217 -80.0297 57° Northeast 439 505 33,000  Level Washington Center
10:05AM 36.0908 -79.9025 56° Northeast 434 499 33,000  Level Washington Center
10:06AM 36.1622 -79.7728 56° Northeast 444 511 33,000  Level Washington Center
10:07AM 36.2336 -79.6453 55° Northeast 449 517 33,000  Level Washington Center
10:08AM 36.3044 -79.5200 55° Northeast 449 517 33,000  Level Washington Center
10:09AM 36.3775 -79.3894 55° Northeast 449 517 33,000 -180 Level Washington Center
10:10AM 36.4417 -79.2714 56° Northeast 449 517 32,700 -1,380 Descending Washington Center
10:11AM 36.5275 -79.1253 54° Northeast 454 522 30,300 -2,040 Descending Washington Center
10:12AM 36.5869 -79.0194 55° Northeast 465 535 28,600 -2,040 Descending Washington Center
10:13AM 36.6683 -78.8650 57° Northeast 453 521 26,300 -1,860 Descending Washington Center
10:14AM 36.7342 -78.7461 55° Northeast 441 507 25,000 -720 Descending Washington Center
10:15AM 36.7931 -78.6447 54° Northeast 415 478 25,000  Level Washington Center
10:16AM 36.8769 -78.5494 42° Northeast 404 465 25,000  Level Washington Center
10:17AM 36.9706 -78.4697 34° Northeast 393 452 25,000 -180 Level Washington Center
10:18AM 37.0769 -78.3853 32° Northeast 406 467 24,700 -660 Descending Washington Center
10:19AM 37.1747 -78.3028 34° Northeast 411 473 23,700 -1,020 Descending Washington Center
10:20AM 37.2769 -78.2175 34° Northeast 423 487 22,700 -900 Descending Washington Center
10:21AM 37.3767 -78.1347 33° Northeast 429 494 22,000 -360 Descending Washington Center
10:22AM 37.4806 -78.0492 33° Northeast 429 494 22,000  Level Washington Center
10:23AM 37.5764 -77.9633 35° Northeast 429 494 22,000 -600 Level Washington Center
10:24AM 37.6739 -77.8822 33° Northeast 429 494 20,800 -1,680 Descending Washington Center
10:25AM 37.7714 -77.7958 35° Northeast 429 494 18,700 -1,860 Descending Washington Center
10:26AM 37.8689 -77.7119 34° Northeast 429 494 17,100 -1,920 Descending Washington Center
10:27AM 37.9578 -77.6356 34° Northeast 423 487 15,000 -2,160 Descending Washington Center
10:28AM 38.0444 -77.5692 31° Northeast 392 451 12,900 -2,100 Descending Washington Center
10:29AM 38.1225 -77.5000 35° Northeast 354 407 10,800 -1,440 Descending Washington Center
10:30AM 38.1925 -77.4411 33° Northeast 323 372 10,000 -420 Descending Washington Center
10:31AM 38.2575 -77.4031 25° Northeast 293 337 10,000 -480 Level Washington Center
10:32AM 38.3292 -77.3625 24° Northeast 281 323 9,100 -1,320 Descending Washington Center
10:33AM 38.4058 -77.3961 341° North 268 308 7,500 -1,560 Descending Washington Center
10:34AM 38.4781 -77.4350 337° Northwest 267 307 6,000 -1,440 Descending Washington Center
10:35AM 38.5508 -77.4447 354° North 267 307 4,600 -1,020 Descending Washington Center
10:36AM 38.6219 -77.4411 North 262 302 4,000 -840 Descending Washington Center
10:37AM 38.7000 -77.4333 North 254 292 3,100 -600 Descending Potomac TRACON
10:38AM 38.7500 -77.4333 360° North 251 289 3,000 -240 Descending Potomac TRACON
10:39AM 38.8167 -77.4333 360° North 205 236 2,700 -300 Descending Potomac TRACON